Southington, CT (06489)

1:53 PM EDT on July 27, 2016 (GMT -0400)
Farmstead Apartments | | Change Station

Elev 223 ft 41.61 °N, 72.88 °W | Updated 1 minute ago

Clear
Clear
93.7 °F
Feels Like 94 °F
N
1.1
Wind Variable Wind from West

Today
High -- | Low -- °F
--% Chance of Precip.
Yesterday
High -- | Low -- °F
Precip. -- in
Pressure 29.92 in
Visibility 10.0 miles
Clouds Clear
Heat Index 94 °F
Dew Point 62 °F
Humidity 35%
Rainfall 0.00 in
Snow Depth Not available.
5:41 AM 8:13 PM
Last Quarter, 41% visible
METAR KMMK 271653Z AUTO VRB04KT 10SM CLR 32/14 A2992 RMK AO2 SLP130 T03220144 TSNO
Pressure 29.92 in
Visibility 10.0 miles
Clouds Clear
Heat Index 94 °F
Dew Point 62 °F
Humidity 35%
Rainfall 0.00 in
Snow Depth Not available.
5:41 AM 8:13 PM
Last Quarter, 41% visible
METAR KMMK 271653Z AUTO VRB04KT 10SM CLR 32/14 A2992 RMK AO2 SLP130 T03220144 TSNO

10-Day Weather Forecast

Almanac

Astronomy

Jul. 27, 2016 Rise Set
Actual Time
Civil Twilight
Nautical Twilight
Astronomical Twilight
Moon
Length of Visible Light
Length of Day
Tomorrow will be .
, % of the Moon is Illuminated

Today's Extremes

State Highs State Lows

Community

WunderPhotos

Upload Photos

1,927,889 photos uploaded!

WunderBlog® & News

Nearby

Air Quality

  Air Quality AQ Index Pollutant
Not available.

Snow Depth

Station Depth Elevation

Earthquake Activity

City Distance Mag. Time & Date
Minimum magnitude displayed is 2.5.

Coastal Water Temperatures

Place Temperature

Stations

Nearby Weather Stations

Station Location Temp. Windchill Dew Point Humidity Wind Precip. Elev Updated Type
                   

Watches & Warnings

There are currently no watches in effect.